createdAt,value
2022-10-30T00:00:55.361Z,39.92
2022-10-30T00:03:23.011Z,39.82
2022-10-30T00:05:51.959Z,39.81
2022-10-30T00:08:21.151Z,39.81
2022-10-30T00:10:50.466Z,39.81
2022-10-30T00:13:19.377Z,40.07
2022-10-30T00:15:51.527Z,40.06
2022-10-30T00:18:21.001Z,40.10
2022-10-30T00:20:48.724Z,40.23
2022-10-30T00:23:16.617Z,40.17
2022-10-30T00:25:44.153Z,40.04
2022-10-30T00:28:11.539Z,40.14
2022-10-30T00:30:39.248Z,40.18
2022-10-30T00:33:06.735Z,40.13
2022-10-30T00:35:34.468Z,40.29
2022-10-30T00:38:03.240Z,40.16
2022-10-30T00:40:30.965Z,40.28
2022-10-30T00:42:58.471Z,40.52
2022-10-30T00:45:26.094Z,40.57
2022-10-30T00:47:56.855Z,40.63
2022-10-30T00:53:03.884Z,40.60
2022-10-30T00:55:34.683Z,40.53
2022-10-30T00:58:03.957Z,40.78
2022-10-30T01:00:31.561Z,40.78
2022-10-30T01:02:59.463Z,41.09
2022-10-30T01:05:29.249Z,40.90
2022-10-30T01:07:56.932Z,40.73
2022-10-30T01:10:25.062Z,40.73
2022-10-30T01:12:54.185Z,40.41
2022-10-30T01:15:27.353Z,40.85
2022-10-30T01:18:18.265Z,40.76
2022-10-30T01:20:59.204Z,40.88
2022-10-30T01:24:00.860Z,41.24
2022-10-30T01:26:57.482Z,41.73
2022-10-30T01:30:02.802Z,41.39
2022-10-30T01:32:55.942Z,41.79
2022-10-30T01:35:32.818Z,40.98
2022-10-30T01:38:23.763Z,41.24
2022-10-30T01:40:53.903Z,40.98
2022-10-30T01:43:21.466Z,41.33
2022-10-30T01:46:13.015Z,41.76
2022-10-30T01:48:43.453Z,41.36
2022-10-30T01:51:20.473Z,41.45
2022-10-30T01:53:57.112Z,41.12
2022-10-30T01:56:34.165Z,41.49
2022-10-30T01:59:19.380Z,41.69
2022-10-30T02:01:47.178Z,41.25
2022-10-30T02:04:14.866Z,41.43
2022-10-30T02:06:42.889Z,41.62
2022-10-30T02:09:11.319Z,41.23
2022-10-30T02:11:47.336Z,41.44
2022-10-30T02:14:22.212Z,41.53
2022-10-30T02:16:52.308Z,41.40
2022-10-30T02:19:22.043Z,41.60
2022-10-30T02:21:50.488Z,41.57
2022-10-30T02:24:18.774Z,41.80
2022-10-30T02:26:46.800Z,41.97
2022-10-30T02:29:15.577Z,41.64
2022-10-30T02:31:43.069Z,41.67
2022-10-30T02:34:11.828Z,41.55
2022-10-30T02:36:39.431Z,41.61
2022-10-30T02:39:07.077Z,42.00
2022-10-30T02:41:36.492Z,41.85
2022-10-30T02:44:04.869Z,41.73
2022-10-30T02:46:33.198Z,41.70
2022-10-30T02:49:00.960Z,41.98
2022-10-30T02:51:28.651Z,41.99
2022-10-30T02:53:56.230Z,41.74
2022-10-30T02:56:23.788Z,41.98
2022-10-30T02:58:52.510Z,41.69
2022-10-30T03:01:20.333Z,42.19
2022-10-30T03:03:49.189Z,41.96
2022-10-30T03:06:17.424Z,41.94
2022-10-30T03:08:48.994Z,41.92
2022-10-30T03:11:18.330Z,42.12
2022-10-30T03:13:48.005Z,42.01
2022-10-30T03:16:26.852Z,42.49
2022-10-30T03:18:56.049Z,42.23
2022-10-30T03:21:25.866Z,42.36
2022-10-30T03:23:54.161Z,42.13
2022-10-30T03:26:22.811Z,42.32
2022-10-30T03:28:53.185Z,42.11
2022-10-30T03:31:28.254Z,42.03
2022-10-30T03:34:08.765Z,42.48
2022-10-30T03:36:36.383Z,42.49
2022-10-30T03:39:04.823Z,42.22
2022-10-30T03:41:34.261Z,42.42
2022-10-30T03:44:01.979Z,42.54
2022-10-30T03:46:31.485Z,42.20
2022-10-30T03:49:12.985Z,42.72
2022-10-30T03:51:40.646Z,42.63
2022-10-30T03:54:08.175Z,42.49
2022-10-30T03:56:35.747Z,42.50
2022-10-30T03:59:05.455Z,42.43
2022-10-30T04:01:36.892Z,42.42
2022-10-30T04:04:04.863Z,42.80
2022-10-30T04:06:33.452Z,42.39
2022-10-30T04:09:01.405Z,42.72
2022-10-30T04:11:35.174Z,42.55
2022-10-30T04:14:04.904Z,42.75
2022-10-30T04:16:33.518Z,42.48
2022-10-30T04:19:02.174Z,42.60
2022-10-30T04:21:29.647Z,42.71
2022-10-30T04:23:58.588Z,42.69
2022-10-30T04:26:31.464Z,42.83
2022-10-30T04:29:03.870Z,42.62
2022-10-30T04:31:31.845Z,42.60
2022-10-30T04:34:01.367Z,43.06
2022-10-30T04:36:34.005Z,42.63
2022-10-30T04:39:02.612Z,43.01
2022-10-30T04:41:31.141Z,42.63
2022-10-30T04:44:07.072Z,43.06
2022-10-30T04:46:35.665Z,43.11
2022-10-30T04:49:09.590Z,42.83
2022-10-30T04:51:38.171Z,42.62
2022-10-30T04:54:07.568Z,43.11
2022-10-30T04:56:37.324Z,42.98
2022-10-30T04:59:05.126Z,43.06
2022-10-30T05:01:34.142Z,43.48
2022-10-30T05:04:03.349Z,43.01
2022-10-30T05:06:33.352Z,43.34
2022-10-30T05:09:00.946Z,42.70
2022-10-30T05:11:38.636Z,43.05
2022-10-30T05:14:09.257Z,43.20
2022-10-30T05:16:38.451Z,43.29
2022-10-30T05:19:07.249Z,43.25
2022-10-30T05:21:35.680Z,43.54
2022-10-30T05:24:04.364Z,43.74
2022-10-30T05:26:39.730Z,43.60
2022-10-30T05:29:08.349Z,43.60
2022-10-30T05:31:36.271Z,43.84
2022-10-30T05:34:29.892Z,43.72
2022-10-30T05:36:57.593Z,43.72
2022-10-30T05:39:25.198Z,43.80
2022-10-30T05:41:53.289Z,43.53
2022-10-30T05:44:34.662Z,43.61
2022-10-30T05:47:11.398Z,43.99
2022-10-30T05:49:41.227Z,43.86
2022-10-30T05:52:13.523Z,43.76
2022-10-30T05:54:41.159Z,43.63
2022-10-30T05:57:18.027Z,43.57
2022-10-30T05:59:45.994Z,43.92
2022-10-30T06:02:14.605Z,43.72
2022-10-30T06:04:42.659Z,44.30
2022-10-30T06:07:13.401Z,44.01
2022-10-30T06:09:41.003Z,43.89
2022-10-30T06:12:36.315Z,43.87
2022-10-30T06:15:24.684Z,44.19
2022-10-30T06:17:54.356Z,43.90
2022-10-30T06:20:35.588Z,44.32
2022-10-30T06:23:27.221Z,43.80
2022-10-30T06:26:05.437Z,44.01
2022-10-30T06:28:58.707Z,44.32
2022-10-30T06:31:26.206Z,44.29
2022-10-30T06:33:53.959Z,43.86
2022-10-30T06:36:22.342Z,44.09
2022-10-30T06:38:50.190Z,44.14
2022-10-30T06:41:21.073Z,44.64
2022-10-30T06:44:05.729Z,44.16
2022-10-30T06:46:37.550Z,44.25
2022-10-30T06:49:05.679Z,44.06
2022-10-30T06:51:33.280Z,44.19
2022-10-30T06:54:01.513Z,44.33
2022-10-30T06:56:40.968Z,44.15
2022-10-30T06:59:17.367Z,44.36
2022-10-30T07:02:11.237Z,44.40
2022-10-30T07:05:03.740Z,44.28
2022-10-30T07:07:31.303Z,44.34
2022-10-30T07:09:59.740Z,44.70
2022-10-30T07:12:54.798Z,44.58
2022-10-30T07:18:20.943Z,44.61
2022-10-30T07:20:55.654Z,44.82
2022-10-30T07:23:24.325Z,44.88
2022-10-30T07:26:04.035Z,44.84
2022-10-30T07:28:37.972Z,44.86
2022-10-30T07:31:49.558Z,44.69
2022-10-30T07:34:49.823Z,44.69
2022-10-30T07:37:49.418Z,44.60
2022-10-30T07:40:18.679Z,44.62
2022-10-30T07:43:16.112Z,44.82
2022-10-30T07:46:03.066Z,44.89
2022-10-30T07:48:56.921Z,44.86
2022-10-30T07:51:29.672Z,44.99
2022-10-30T07:53:57.140Z,45.27
2022-10-30T07:56:25.983Z,44.95
2022-10-30T07:58:53.429Z,44.96
2022-10-30T08:01:57.479Z,44.96
2022-10-30T08:04:45.055Z,45.12
2022-10-30T08:07:37.228Z,45.33
2022-10-30T08:10:06.945Z,45.51
2022-10-30T08:12:35.347Z,45.26
2022-10-30T08:15:05.359Z,45.55
2022-10-30T08:17:32.952Z,45.32
2022-10-30T08:20:00.702Z,45.27
2022-10-30T08:22:28.241Z,45.38
2022-10-30T08:25:01.102Z,45.30
2022-10-30T08:27:31.629Z,45.63
2022-10-30T08:29:59.205Z,45.63
2022-10-30T08:32:26.788Z,45.47
2022-10-30T08:35:18.637Z,45.67
2022-10-30T08:37:47.649Z,45.90
2022-10-30T08:40:18.854Z,45.71
2022-10-30T08:42:58.038Z,45.75
2022-10-30T08:45:31.444Z,45.72
2022-10-30T08:48:20.309Z,45.83
2022-10-30T08:50:47.948Z,45.57
2022-10-30T08:53:20.973Z,46.31
2022-10-30T08:55:51.770Z,45.55
2022-10-30T08:58:26.343Z,45.69
2022-10-30T09:00:58.619Z,45.55
2022-10-30T09:04:06.009Z,45.37
2022-10-30T09:06:56.350Z,45.63
2022-10-30T09:09:42.313Z,45.59
2022-10-30T09:12:10.448Z,45.39
2022-10-30T09:14:43.165Z,45.44
2022-10-30T09:17:12.716Z,45.30
2022-10-30T09:19:44.312Z,45.21
2022-10-30T09:22:19.941Z,44.81
2022-10-30T09:24:47.412Z,45.00
2022-10-30T09:27:43.011Z,45.11
2022-10-30T09:30:15.599Z,45.00
2022-10-30T09:32:49.923Z,44.82
2022-10-30T09:35:22.962Z,44.85
2022-10-30T09:37:52.050Z,44.62
2022-10-30T09:40:24.854Z,45.01
2022-10-30T09:43:02.498Z,44.34
2022-10-30T09:45:58.805Z,44.47
2022-10-30T09:48:51.754Z,44.47
2022-10-30T09:51:48.551Z,44.41
2022-10-30T09:54:21.345Z,44.15
2022-10-30T09:57:02.453Z,44.04
2022-10-30T09:59:30.892Z,43.99
2022-10-30T10:02:37.752Z,43.71
2022-10-30T10:05:19.549Z,43.65
2022-10-30T10:08:11.712Z,43.75
2022-10-30T10:11:23.433Z,43.58
2022-10-30T10:14:01.753Z,43.25
2022-10-30T10:16:35.366Z,43.28
2022-10-30T10:19:22.781Z,43.04
2022-10-30T10:22:04.133Z,42.97
2022-10-30T10:24:35.909Z,42.92
2022-10-30T10:27:06.282Z,42.84
2022-10-30T10:30:16.297Z,42.72
2022-10-30T10:33:01.171Z,42.65
2022-10-30T10:35:35.166Z,42.50
2022-10-30T10:38:19.280Z,42.29
2022-10-30T10:40:52.940Z,42.13
2022-10-30T10:44:22.913Z,41.70
2022-10-30T10:47:08.225Z,41.69
2022-10-30T10:49:59.334Z,41.34
2022-10-30T10:53:04.040Z,41.06
2022-10-30T10:55:37.608Z,41.07
2022-10-30T10:58:33.249Z,40.71
2022-10-30T11:01:00.985Z,40.59
2022-10-30T11:03:35.773Z,40.56
2022-10-30T11:06:22.922Z,40.08
2022-10-30T11:08:52.912Z,40.16
2022-10-30T11:11:21.502Z,40.01
2022-10-30T11:13:50.263Z,39.78
2022-10-30T11:16:43.003Z,38.82
2022-10-30T11:19:10.785Z,39.27
2022-10-30T11:21:42.119Z,39.00
2022-10-30T11:24:33.831Z,37.70
2022-10-30T11:27:23.601Z,37.33
2022-10-30T11:29:53.928Z,37.22
2022-10-30T11:32:23.002Z,36.80
2022-10-30T11:35:08.853Z,35.53
2022-10-30T11:37:38.959Z,35.14
2022-10-30T11:40:27.891Z,33.61
2022-10-30T11:43:03.871Z,33.66
2022-10-30T11:45:34.665Z,33.09
2022-10-30T11:48:03.201Z,32.46
2022-10-30T11:50:32.644Z,31.14
2022-10-30T11:53:20.168Z,30.94
2022-10-30T11:55:48.438Z,30.80
2022-10-30T11:58:30.968Z,30.01
2022-10-30T12:01:23.394Z,30.15
2022-10-30T12:03:51.769Z,29.83
2022-10-30T12:06:29.239Z,29.18
2022-10-30T12:09:01.993Z,28.92
2022-10-30T12:11:35.967Z,28.86
2022-10-30T12:14:04.490Z,28.61
2022-10-30T12:16:33.216Z,28.38
2022-10-30T12:19:06.766Z,28.10
2022-10-30T12:21:40.821Z,27.96
2022-10-30T12:24:16.742Z,27.93
2022-10-30T12:26:47.926Z,27.64
2022-10-30T12:29:18.016Z,27.57
2022-10-30T12:31:48.435Z,27.80
2022-10-30T12:34:28.022Z,26.94
2022-10-30T12:37:02.777Z,27.44
2022-10-30T12:39:42.818Z,26.97
2022-10-30T12:42:15.719Z,26.82
2022-10-30T12:44:47.304Z,26.54
2022-10-30T12:47:25.947Z,26.09
2022-10-30T12:53:06.731Z,24.73
2022-10-30T12:55:35.392Z,26.47
2022-10-30T12:58:34.992Z,24.87
2022-10-30T13:01:15.996Z,25.55
2022-10-30T13:03:51.498Z,25.41
2022-10-30T13:06:31.645Z,24.95
2022-10-30T13:09:19.683Z,24.86
2022-10-30T13:12:01.316Z,25.29
2022-10-30T13:14:38.694Z,24.84
2022-10-30T13:17:15.998Z,24.61
2022-10-30T13:19:46.058Z,24.76
2022-10-30T13:22:25.465Z,24.43
2022-10-30T13:25:07.952Z,24.15
2022-10-30T13:27:43.585Z,24.54
2022-10-30T13:30:23.652Z,24.28
2022-10-30T13:32:51.084Z,24.25
2022-10-30T13:35:27.747Z,23.78
2022-10-30T13:38:06.812Z,23.70
2022-10-30T13:40:34.274Z,23.92
2022-10-30T13:43:18.228Z,23.12
2022-10-30T13:46:24.828Z,22.82
2022-10-30T13:49:17.122Z,23.80
2022-10-30T13:52:08.432Z,23.62
2022-10-30T13:55:29.857Z,23.00
2022-10-30T13:58:02.987Z,23.73
2022-10-30T14:00:56.402Z,23.29
2022-10-30T14:03:42.692Z,23.43
2022-10-30T14:06:19.506Z,23.73
2022-10-30T14:09:31.303Z,23.65
2022-10-30T14:12:22.739Z,24.04
2022-10-30T14:14:50.172Z,24.28
2022-10-30T14:17:19.764Z,24.12
2022-10-30T14:20:26.748Z,23.93
2022-10-30T14:23:29.179Z,24.20
2022-10-30T14:26:34.170Z,24.42
2022-10-30T14:29:32.381Z,24.36
2022-10-30T14:32:15.109Z,24.78
2022-10-30T14:34:58.496Z,25.00
2022-10-30T14:37:27.024Z,25.17
2022-10-30T14:39:56.249Z,25.34
2022-10-30T14:42:45.413Z,25.21
2022-10-30T14:45:18.319Z,25.41
2022-10-30T14:48:14.141Z,25.49
2022-10-30T14:50:53.194Z,25.68
2022-10-30T14:53:56.314Z,25.94
2022-10-30T14:56:44.824Z,26.03
2022-10-30T14:59:15.247Z,26.08
2022-10-30T15:01:52.824Z,26.11
2022-10-30T15:04:29.697Z,26.17
2022-10-30T15:07:04.374Z,26.33
2022-10-30T15:10:03.762Z,26.38
2022-10-30T15:13:02.195Z,26.48
2022-10-30T15:15:30.329Z,26.61
2022-10-30T15:18:11.652Z,26.65
2022-10-30T15:20:39.669Z,26.83
2022-10-30T15:23:38.307Z,26.78
2022-10-30T15:26:22.411Z,26.74
2022-10-30T15:28:50.977Z,26.96
2022-10-30T15:31:27.824Z,27.20
2022-10-30T15:33:56.775Z,27.23
2022-10-30T15:36:41.522Z,27.21
2022-10-30T15:39:16.801Z,27.21
2022-10-30T15:41:47.817Z,27.31
2022-10-30T15:44:21.705Z,27.37
2022-10-30T15:46:56.095Z,27.54
2022-10-30T15:49:46.862Z,27.69
2022-10-30T15:52:21.077Z,27.69
2022-10-30T15:55:13.456Z,27.90
2022-10-30T15:58:12.909Z,27.72
2022-10-30T16:00:38.195Z,27.45
2022-10-30T16:03:14.361Z,27.90
2022-10-30T16:05:42.004Z,27.98
2022-10-30T16:08:16.037Z,28.23
2022-10-30T16:10:44.402Z,28.26
2022-10-30T16:13:19.117Z,28.27
2022-10-30T16:15:47.632Z,28.37
2022-10-30T16:18:30.859Z,28.47
2022-10-30T16:21:07.945Z,28.45
2022-10-30T16:23:41.184Z,28.62
2022-10-30T16:26:12.775Z,28.71
2022-10-30T16:28:40.221Z,28.49
2022-10-30T16:31:15.278Z,28.68
2022-10-30T16:33:46.414Z,28.83
2022-10-30T16:36:17.036Z,28.76
2022-10-30T16:38:47.442Z,28.81
2022-10-30T16:41:16.214Z,28.94
2022-10-30T16:43:49.670Z,28.93
2022-10-30T16:46:18.744Z,28.98
2022-10-30T16:48:52.722Z,29.03
2022-10-30T16:51:21.550Z,29.19
2022-10-30T16:53:53.454Z,29.25
2022-10-30T16:56:32.950Z,29.23
2022-10-30T16:59:16.832Z,29.75
2022-10-30T17:01:45.211Z,29.51
2022-10-30T17:04:15.387Z,29.50
2022-10-30T17:06:45.314Z,29.50
2022-10-30T17:09:21.994Z,29.54
2022-10-30T17:12:07.909Z,29.73
2022-10-30T17:15:14.316Z,30.18
2022-10-30T17:17:42.486Z,29.78
2022-10-30T17:20:19.381Z,29.86
2022-10-30T17:22:48.338Z,29.87
2022-10-30T17:25:31.720Z,30.25
2022-10-30T17:27:59.480Z,29.98
2022-10-30T17:30:32.074Z,30.16
2022-10-30T17:32:59.832Z,29.99
2022-10-30T17:35:27.522Z,30.16
2022-10-30T17:37:58.407Z,29.93
2022-10-30T17:40:29.513Z,30.32
2022-10-30T17:42:57.038Z,30.34
2022-10-30T17:45:24.570Z,30.44
2022-10-30T17:47:52.145Z,30.48
2022-10-30T17:50:19.783Z,30.54
2022-10-30T17:52:48.418Z,30.47
2022-10-30T17:55:29.709Z,30.86
2022-10-30T17:57:57.243Z,30.64
2022-10-30T18:00:24.996Z,30.79
2022-10-30T18:02:53.928Z,30.80
2022-10-30T18:05:33.353Z,30.93
2022-10-30T18:08:01.071Z,30.87
2022-10-30T18:10:29.609Z,30.91
2022-10-30T18:12:58.143Z,31.08
2022-10-30T18:15:35.742Z,31.18
2022-10-30T18:18:03.591Z,31.10
2022-10-30T18:20:31.627Z,31.12
2022-10-30T18:22:59.977Z,31.21
2022-10-30T18:25:35.319Z,31.48
2022-10-30T18:28:03.058Z,31.53
2022-10-30T18:30:30.696Z,31.65
2022-10-30T18:32:58.661Z,31.67
2022-10-30T18:35:30.953Z,31.64
2022-10-30T18:37:58.522Z,31.52
2022-10-30T18:40:26.288Z,31.83
2022-10-30T18:42:53.787Z,31.91
2022-10-30T18:45:24.166Z,31.87
2022-10-30T18:47:52.733Z,32.01
2022-10-30T18:50:22.012Z,32.22
2022-10-30T18:52:50.119Z,32.10
2022-10-30T18:55:38.725Z,32.53
2022-10-30T18:58:07.799Z,32.08
2022-10-30T19:00:58.273Z,32.34
2022-10-30T19:03:24.171Z,32.47
2022-10-30T19:05:52.296Z,32.42
2022-10-30T19:08:19.787Z,32.48
2022-10-30T19:10:47.949Z,32.38
2022-10-30T19:13:17.108Z,32.53
2022-10-30T19:15:52.114Z,32.90
2022-10-30T19:18:21.654Z,32.84
2022-10-30T19:21:04.045Z,32.90
2022-10-30T19:23:33.404Z,32.79
2022-10-30T19:26:01.023Z,32.93
2022-10-30T19:28:30.929Z,32.75
2022-10-30T19:30:58.507Z,33.05
2022-10-30T19:33:26.057Z,33.17
2022-10-30T19:35:55.460Z,33.01
2022-10-30T19:38:22.936Z,32.82
2022-10-30T19:40:50.964Z,33.27
2022-10-30T19:43:18.521Z,33.24
2022-10-30T19:45:47.233Z,33.17
2022-10-30T19:48:24.757Z,33.52
2022-10-30T19:51:02.138Z,33.29
2022-10-30T19:53:30.704Z,33.34
2022-10-30T19:55:58.223Z,33.74
2022-10-30T19:58:26.213Z,33.43
2022-10-30T20:00:54.417Z,33.65
2022-10-30T20:03:22.076Z,33.65
2022-10-30T20:05:50.813Z,34.01
2022-10-30T20:08:25.744Z,34.01
2022-10-30T20:10:54.647Z,34.18
2022-10-30T20:13:26.020Z,34.37
2022-10-30T20:15:54.698Z,34.29
2022-10-30T20:18:24.894Z,34.07
2022-10-30T20:20:54.803Z,34.26
2022-10-30T20:23:23.489Z,34.32
2022-10-30T20:25:58.176Z,34.19
2022-10-30T20:28:30.575Z,34.66
2022-10-30T20:30:58.450Z,34.59
2022-10-30T20:33:26.807Z,34.34
2022-10-30T20:35:55.451Z,34.78
2022-10-30T20:38:31.535Z,34.71
2022-10-30T20:41:00.824Z,34.69
2022-10-30T20:43:34.189Z,34.56
2022-10-30T20:46:01.955Z,35.78
2022-10-30T20:48:30.897Z,34.67
2022-10-30T20:51:00.376Z,34.58
2022-10-30T20:53:30.432Z,34.99
2022-10-30T20:55:58.239Z,34.89
2022-10-30T20:58:26.044Z,34.79
2022-10-30T21:00:55.457Z,35.13
2022-10-30T21:03:23.183Z,34.91
2022-10-30T21:06:01.375Z,35.11
2022-10-30T21:08:31.614Z,35.20
2022-10-30T21:11:00.435Z,35.22
2022-10-30T21:13:28.718Z,35.17
2022-10-30T21:16:01.140Z,34.93
2022-10-30T21:18:28.596Z,35.24
2022-10-30T21:21:11.635Z,35.51
2022-10-30T21:23:39.164Z,35.26
2022-10-30T21:26:11.105Z,35.13
2022-10-30T21:28:40.476Z,35.39
2022-10-30T21:31:10.964Z,35.21
2022-10-30T21:33:38.485Z,35.32
2022-10-30T21:36:14.086Z,35.51
2022-10-30T21:38:43.183Z,35.59
2022-10-30T21:41:14.476Z,35.53
2022-10-30T21:43:42.675Z,35.67
2022-10-30T21:46:12.379Z,35.64
2022-10-30T21:48:40.075Z,35.64
2022-10-30T21:51:12.948Z,35.63
2022-10-30T21:53:40.816Z,35.44
2022-10-30T21:56:17.369Z,35.57
2022-10-30T21:58:45.204Z,35.67
2022-10-30T22:01:21.903Z,35.90
2022-10-30T22:03:49.817Z,35.68
2022-10-30T22:06:18.656Z,35.88
2022-10-30T22:08:47.423Z,35.91
2022-10-30T22:11:15.117Z,36.05
2022-10-30T22:13:42.734Z,35.69
2022-10-30T22:16:12.319Z,36.17
2022-10-30T22:18:40.518Z,35.87
2022-10-30T22:21:10.431Z,36.16
2022-10-30T22:23:39.817Z,36.21
2022-10-30T22:26:11.111Z,36.25
2022-10-30T22:28:38.758Z,36.16
2022-10-30T22:31:08.577Z,36.16
2022-10-30T22:33:36.368Z,36.47
2022-10-30T22:36:07.624Z,36.37
2022-10-30T22:38:35.540Z,36.17
2022-10-30T22:41:09.990Z,36.56
2022-10-30T22:43:37.724Z,36.57
2022-10-30T22:46:05.236Z,36.79
2022-10-30T22:48:32.743Z,36.65
2022-10-30T22:51:01.429Z,36.67
2022-10-30T22:53:30.073Z,36.46
2022-10-30T22:55:57.547Z,36.82
2022-10-30T22:58:29.554Z,36.69
2022-10-30T23:01:24.507Z,37.48
2022-10-30T23:03:54.765Z,36.69
2022-10-30T23:06:22.469Z,36.55
2022-10-30T23:08:52.615Z,36.93
2022-10-30T23:11:20.656Z,36.83
2022-10-30T23:13:49.576Z,36.77
2022-10-30T23:16:19.772Z,36.69
2022-10-30T23:18:48.187Z,37.06
2022-10-30T23:21:20.953Z,37.34
2022-10-30T23:23:48.950Z,36.83
2022-10-30T23:26:19.612Z,36.99
2022-10-30T23:28:48.625Z,37.17
2022-10-30T23:31:23.492Z,37.41
2022-10-30T23:33:53.560Z,37.16
2022-10-30T23:36:21.636Z,37.42
2022-10-30T23:38:53.532Z,37.44
2022-10-30T23:41:21.927Z,37.30
2022-10-30T23:43:53.612Z,37.63
2022-10-30T23:46:21.671Z,37.30
2022-10-30T23:48:49.325Z,37.68
2022-10-30T23:51:17.032Z,37.84
2022-10-30T23:53:44.503Z,37.45
2022-10-30T23:56:12.616Z,37.46
2022-10-30T23:58:43.866Z,37.81
